Main page
METAR-TAF:

METAR-TAF

Airports :

Joensuu Airport

Joensuu, Finland

latitude: 62-40N, longitude: 029-38E, elevation: 119 m

Current weather observation

The report was made 33 minutes ago, at 23:50 UTC
Wind 14 kt from the West/Northwest, varying between West and Northwest
Temperature 0°C
Humidity 69%
Pressure 992 hPa
Visibility 10 km or more
Broken clouds at a height of 2800 ft

METAR: EFJO 212350Z AUTO 29014KT 260V320 9999 BKN028 00/M05 Q0992

Time: 02:23 (00:23 UTC)

Forecast

The report was made 2 hours and 49 minutes ago, at 21:34 UTC
Forecast valid from 21 at 21 UTC to 21 at 24 UTC
Wind 12 kt from the West
Visibility 10 km or more
Broken clouds at a height of 3000 ft
Temporary
from 21 at 21 UTC to 21 at 24 UTC
Wind 15 kt from the West/Northwest with gusts up to 25 kt
Visibility: 4000 m
Scattered clouds at a height of 3000 ft, Towering cumulus.
light snow showers

TAF: EFJO 212134Z 2121/2124 28012KT 9999 BKN030 TEMPO 2121/2124 29015G25KT 4000 -SHSN SCT030TCU

Weather observations and forecasts of more than 4000 airports (METAR and TAF reports).

The available stations are represented by yellow and red dots on the map.

Hover mouse over dot to see the name of the station.

Then click to see weather observations and forecasts.

To change the map : click on the green buttons with a black cross to zoom in, on the green button with a dash to zoom out, or on the green arrows for adjacent maps.


METAR-TAF: